• Join FlightAware (Why Join?)
  • Login
  • US Flag 
11:18AM EDT


 

Airport Tracker/Info


-or-


 

Live Flight TrackerFlight Track Log ✈ SWA494 ✈ 08-Apr-2013 ✈ KHOU - KSAT

Flight Track Log - Related Links

Times and Time Zones

All times are in EDT time to prevent confusion due to time zone crossing. See the SWA494 flight status page for this flight to view local times or setup timezone preferences in your user account.

Time Position Orientation Groundspeed Altitude Reporting Facility
EDT Latitude Longitude Course Direction KTS MPH feet Rate Location/Type
09:24PM 29.6017 -95.3433 233° Southwest 196 226 3,900  Level Houston Center
09:25PM 29.6178 -95.4294 282° West 268 308 7,200 3,540 Climbing Houston Center
09:26PM 29.6369 -95.5183 284° West 285 328 11,100 3,540 Climbing Houston Center
09:27PM 29.6597 -95.6244 284° West 340 391 14,500 3,600 Climbing Houston Center
09:28PM 29.6828 -95.7347 284° West 352 405 18,500 3,660 Climbing Houston Center
09:29PM 29.7075 -95.8494 284° West 369 425 22,100 3,540 Climbing Houston Center
09:30PM 29.7378 -95.9908 284° West 380 437 25,700 2,820 Climbing Houston Center
09:31PM 29.7581 -96.0886 283° West 369 425 27,900 1,080 Climbing Houston Center
09:32PM 29.7817 -96.2022 283° West 366 421 28,000  Climbing Houston Center
09:33PM 29.7908 -96.3417 274° West 368 423 28,000  Level Houston Center
09:34PM 29.7997 -96.4575 275° West 367 422 28,000  Level Houston Center
09:35PM 29.8086 -96.5736 275° West 364 419 28,000  Level Houston Center
09:36PM 29.8169 -96.6928 275° West 374 430 28,000  Level Houston Center
09:37PM 29.8250 -96.8089 275° West 368 423 28,000  Level Houston Center
09:38PM 29.8333 -96.9272 275° West 372 428 28,000  Level Houston Center
09:39PM 29.8425 -97.0442 275° West 372 428 28,000 -300 Level Houston Center
09:40PM 29.8506 -97.1597 275° West 367 422 27,400 -1,860 Descending Houston Center
09:41PM 29.8600 -97.3050 274° West 383 441 24,300 -2,700 Descending Houston Center
09:42PM 29.8686 -97.4225 275° West 374 430 22,000 -2,280 Descending Houston Center
09:43PM 29.8764 -97.5347 275° West 358 412 19,700 -2,340 Descending Houston Center
09:44PM 29.8831 -97.6497 274° West 343 395 17,300 -2,400 Descending Houston Center
09:45PM 29.8864 -97.6897 276° West 335 386 16,400 -2,220 Descending Houston Center
09:45PM 29.8881 -97.7303 273° West 333 383 15,600 -2,220 Descending Houston Center
09:46PM 29.8950 -97.8453 274° West 331 381 13,300 -1,680 Descending Houston Center
09:47PM 29.8642 -97.9383 249° West 318 366 12,300 -960 Descending Houston Center
09:47PM 29.8558 -97.9606 247° West 319 367 12,100 -900 Descending Houston Center
09:48PM 29.8267 -98.0297 244° Southwest 318 366 11,400 -1,020 Descending Houston Center
09:48PM 29.8178 -98.0511 244° Southwest 316 364 11,100 -1,140 Descending Houston Center
09:49PM 29.7889 -98.1189 244° Southwest 312 359 10,300 -1,020 Descending Houston Center
09:49PM 29.7808 -98.1383 244° Southwest 302 348 10,100 -840 Descending Houston Center
09:50PM 29.7542 -98.1978 243° Southwest 270 311 9,500 -900 Descending Houston Center
09:51PM 29.7453 -98.2219 247° West 270 311 9,200 -1,680 Descending Houston Center
09:51PM 29.7369 -98.2817 261° West 269 310 7,800 -1,980 Descending Houston Center
09:52PM 29.7344 -98.3086 264° West 276 318 7,200 -1,920 Descending Houston Center
09:52PM 29.7281 -98.3669 263° West 272 313 5,900 -1,800 Descending Houston Center
09:53PM 29.7250 -98.3928 262° West 268 308 5,400 -2,220 Descending Houston Center
09:53PM 29.7194 -98.4569 264° West 262 302 3,700 -1,800 Descending Houston Center
09:54PM 29.7194 -98.4764 270° West 271 312 3,600 -600 Descending Houston Center
09:54PM 29.7142 -98.5369 264° West 251 289 3,100 -600 Descending Houston Center
09:55PM 29.7019 -98.5533 229° Southwest 236 272 3,000 -120 Descending Houston Center
09:55PM 29.6767 -98.5847 227° Southwest 175 201 3,000  Level Houston Center
09:56PM 29.6653 -98.5939 215° Southwest 185 213 3,000  Level Houston Center
09:56PM 29.6381 -98.5992 190° South 135 155 3,000 -180 Level Houston Center
09:57PM 29.6058 -98.5692 141° Southeast 139 160 2,700 -540 Descending Houston Center
09:58PM 29.5819 -98.5383 132° Southeast 129 148 2,000 -660 Descending Houston Center
09:59PM 29.5775 -98.5292 119° Southeast 129 148 1,900 -600 Descending Houston Center
09:59PM 29.5606 -98.5097 135° Southeast 119 137 1,400 -720 Descending Houston Center
10:00PM 29.5556 -98.5003 121° Southeast 122 140 1,200 -480 Descending Houston Center
10:01PM 29.5344 -98.4728 131° Southeast 122 140 800 -420 Descending Houston Center